Time;durP1;ratioP1;P1;durP2;ratioP2;P2;SDS_P1;SDS_P2;PMS_P1;PMS_P2;Temp;Humidity;BMP_temperature;BMP_pressure;BME280_temperature;BME280_humidity;BME280_pressure;Samples;Min_cycle;Max_cycle;Signal;HPM_P1;HPM_P2
2022/01/01 00:01:43;;;;;;;130.05;38.67;;;2.40;82.30;;;;;;5043518;28;20072;-69
2022/01/01 00:04:09;;;;;;;;;;;2.30;82.40;;;;;;5012327;28;20041;-69
2022/01/01 00:06:35;;;;;;;129.98;33.72;;;2.20;81.80;;;;;;5043374;28;19925;-69
2022/01/01 00:09:01;;;;;;;;;;;2.20;82.50;;;;;;5012656;28;20497;-69
2022/01/01 00:11:27;;;;;;;198.05;36.03;;;2.20;82.50;;;;;;5043450;28;20012;-69
2022/01/01 00:13:53;;;;;;;171.45;39.47;;;2.10;82.40;;;;;;5043199;28;20687;-69
2022/01/01 00:16:20;;;;;;;209.00;41.22;;;2.20;82.20;;;;;;5011849;28;20038;-69
2022/01/01 00:18:46;;;;;;;164.98;44.10;;;2.20;82.10;;;;;;5010485;28;20054;-69
2022/01/01 00:21:12;;;;;;;199.75;45.22;;;2.20;82.00;;;;;;5043874;28;20419;-69
2022/01/01 00:23:38;;;;;;;;;;;2.20;82.10;;;;;;5043974;28;20076;-69
2022/01/01 00:26:04;;;;;;;202.68;46.10;;;2.20;82.10;;;;;;5011641;28;20087;-69
2022/01/01 00:28:30;;;;;;;217.80;77.00;;;2.20;82.10;;;;;;5011559;28;20057;-69
2022/01/01 00:30:56;;;;;;;306.20;76.00;;;2.20;82.10;;;;;;5043226;28;20034;-68
2022/01/01 00:33:22;;;;;;;243.27;67.22;;;2.20;82.30;;;;;;5043786;28;20038;-69
2022/01/01 00:35:48;;;;;;;262.27;61.28;;;2.20;82.30;;;;;;5043106;28;20046;-70
2022/01/01 00:38:14;;;;;;;272.30;61.42;;;2.20;82.30;;;;;;5011564;28;20038;-69
2022/01/01 00:40:40;;;;;;;231.25;59.03;;;2.20;82.30;;;;;;5011417;28;20125;-69
2022/01/01 00:43:07;;;;;;;202.55;57.92;;;2.20;82.50;;;;;;5043178;28;20419;-69
2022/01/01 00:45:33;;;;;;;213.27;63.15;;;2.20;82.40;;;;;;5042869;28;20065;-69
2022/01/01 00:47:59;;;;;;;198.68;52.10;;;2.20;82.30;;;;;;5010817;28;20037;-69
2022/01/01 00:50:25;;;;;;;233.38;58.80;;;2.30;82.40;;;;;;5009645;28;20049;-69
2022/01/01 00:52:52;;;;;;;191.30;57.53;;;2.20;82.50;;;;;;5056034;28;20502;-69
2022/01/01 00:55:19;;;;;;;243.50;76.20;;;2.20;82.50;;;;;;5042635;28;20030;-69
2022/01/01 00:57:47;;;;;;;222.90;69.60;;;2.30;82.60;;;;;;5042416;28;20038;-69
2022/01/01 01:00:13;;;;;;;230.38;70.05;;;2.20;82.30;;;;;;5010400;28;20116;-69
2022/01/01 01:02:40;;;;;;;235.48;73.13;;;2.20;82.10;;;;;;5043784;28;20439;-69
2022/01/01 01:05:06;;;;;;;;;;;2.20;82.70;;;;;;5046995;28;20053;-69
2022/01/01 01:07:32;;;;;;;242.63;80.88;;;2.20;82.50;;;;;;5014896;28;19944;-70
2022/01/01 01:09:58;;;;;;;205.93;73.25;;;2.10;82.90;;;;;;5029647;28;20033;-69
2022/01/01 01:12:32;;;;;;;205.85;72.65;;;2.10;82.90;;;;;;5046762;28;20041;-70
2022/01/01 01:14:58;;;;;;;180.32;69.35;;;2.10;83.20;;;;;;5013632;28;20046;-69
2022/01/01 01:17:24;;;;;;;157.35;66.78;;;2.00;83.20;;;;;;5029828;28;20052;-68
2022/01/01 01:19:50;;;;;;;151.02;62.30;;;2.00;83.50;;;;;;5014644;28;20048;-69
2022/01/01 01:22:16;;;;;;;158.73;66.07;;;2.00;83.60;;;;;;5014601;28;20038;-69
2022/01/01 01:24:43;;;;;;;188.20;74.05;;;2.00;83.60;;;;;;5012925;28;20050;-69
2022/01/01 01:27:09;;;;;;;;;;;2.00;83.70;;;;;;5014001;28;20584;-69
2022/01/01 01:29:38;;;;;;;154.95;66.97;;;2.00;83.70;;;;;;5014329;28;19929;-69
2022/01/01 01:32:04;;;;;;;164.95;71.28;;;2.00;83.70;;;;;;5014397;28;20045;-69
2022/01/01 01:34:30;;;;;;;185.85;74.93;;;1.90;83.20;;;;;;5012814;28;20034;-69
2022/01/01 01:36:56;;;;;;;;;;;1.90;83.80;;;;;;5014699;28;20038;-70
2022/01/01 01:39:23;;;;;;;169.15;69.80;;;1.90;84.00;;;;;;5046450;28;19955;-69
2022/01/01 01:41:51;;;;;;;198.68;77.50;;;1.90;84.00;;;;;;5029227;28;20038;-69
2022/01/01 01:44:42;;;;;;;226.52;88.90;;;1.80;83.90;;;;;;5014062;28;20506;-70
2022/01/01 01:47:15;;;;;;;180.10;75.30;;;1.90;84.10;;;;;;5044193;28;20069;-69
2022/01/01 01:49:44;;;;;;;171.23;72.57;;;1.80;83.70;;;;;;5012934;28;20046;-68
2022/01/01 01:52:15;;;;;;;166.45;71.55;;;1.80;83.70;;;;;;5055867;28;20069;-68
2022/01/01 01:54:41;;;;;;;162.50;71.57;;;1.80;83.60;;;;;;5043719;28;20067;-68
2022/01/01 01:57:08;;;;;;;;;;;1.90;83.20;;;;;;5046540;28;20054;-69
2022/01/01 01:59:38;;;;;;;107.53;50.30;;;1.90;83.70;;;;;;5012520;28;19921;-69
2022/01/01 02:02:04;;;;;;;101.20;45.65;;;1.90;83.60;;;;;;5045687;28;20128;-68
2022/01/01 02:04:31;;;;;;;113.45;49.53;;;1.80;83.80;;;;;;5045440;28;20026;-69
2022/01/01 02:06:57;;;;;;;115.43;51.35;;;1.80;83.70;;;;;;5012382;28;20034;-69
2022/01/01 02:09:24;;;;;;;113.43;48.05;;;1.80;83.50;;;;;;5045804;28;20406;-69
2022/01/01 02:11:52;;;;;;;119.70;53.20;;;1.80;83.50;;;;;;5045491;28;20461;-68
2022/01/01 02:14:33;;;;;;;126.03;53.92;;;1.80;83.50;;;;;;5028340;28;20038;-69
2022/01/01 02:19:30;;;;;;;;;;;1.80;83.40;;;;;;5013798;28;20038;-70
2022/01/01 02:22:01;;;;;;;107.80;47.33;;;1.70;83.40;;;;;;4995998;28;20188;-69
2022/01/01 02:24:27;;;;;;;104.47;47.45;;;1.70;83.20;;;;;;5013731;28;20033;-68
2022/01/01 02:26:53;;;;;;;110.47;48.65;;;1.60;83.40;;;;;;5043816;28;20153;-69
2022/01/01 02:29:23;;;;;;;97.07;48.13;;;1.60;83.30;;;;;;5013057;28;20045;-68
2022/01/01 02:31:50;;;;;;;101.47;46.50;;;1.60;83.20;;;;;;5044913;28;20080;-69
2022/01/01 02:34:18;;;;;;;101.25;47.97;;;1.60;83.10;;;;;;5044741;28;20439;-69
2022/01/01 02:36:45;;;;;;;127.88;51.78;;;1.50;82.40;;;;;;5044310;28;20616;-69
2022/01/01 02:39:13;;;;;;;;;;;1.60;84.00;;;;;;5029294;28;20057;-68
2022/01/01 02:41:42;;;;;;;162.98;66.13;;;1.50;82.90;;;;;;4995327;28;19925;-69
2022/01/01 02:44:08;;;;;;;140.55;60.83;;;1.50;82.70;;;;;;5028118;28;20623;-68
2022/01/01 02:46:34;;;;;;;;;;;1.60;82.80;;;;;;5013202;28;20038;-69
2022/01/01 02:49:01;;;;;;;129.95;62.25;;;1.60;82.10;;;;;;5044678;28;20000;-68
2022/01/01 02:51:27;;;;;;;146.73;62.33;;;1.50;82.10;;;;;;5045489;28;20026;-69
2022/01/01 02:53:53;;;;;;;;;;;1.60;83.10;;;;;;5045358;28;20120;-69
2022/01/01 02:56:19;;;;;;;146.63;60.95;;;1.60;82.70;;;;;;5060751;28;19928;-69
2022/01/01 02:58:45;;;;;;;133.60;54.25;;;1.60;82.70;;;;;;5044558;28;20072;-69
2022/01/01 03:01:11;;;;;;;;;;;1.50;82.70;;;;;;5013315;28;20037;-69
2022/01/01 03:03:38;;;;;;;109.50;47.40;;;1.50;82.70;;;;;;5044135;28;19917;-70
2022/01/01 03:06:04;;;;;;;;;;;1.50;82.00;;;;;;5012130;28;20041;-69
2022/01/01 03:08:30;;;;;;;109.05;48.78;;;1.50;82.60;;;;;;5011400;28;19929;-68
2022/01/01 03:10:56;;;;;;;111.88;51.13;;;1.50;82.50;;;;;;5012324;28;20038;-70
2022/01/01 03:13:22;;;;;;;123.43;51.38;;;1.60;82.40;;;;;;5027382;28;20042;-69
2022/01/01 03:15:48;;;;;;;124.82;54.22;;;1.60;82.20;;;;;;5012289;28;20045;-69
2022/01/01 03:18:15;;;;;;;160.73;54.10;;;1.70;82.00;;;;;;5044919;28;20033;-69
2022/01/01 03:20:41;;;;;;;141.88;55.83;;;1.70;82.00;;;;;;5012600;28;20120;-69
2022/01/01 03:23:07;;;;;;;171.30;55.25;;;1.70;81.80;;;;;;5027636;28;20068;-69
2022/01/01 03:25:33;;;;;;;170.40;56.38;;;1.80;81.70;;;;;;5027022;28;20037;-70
2022/01/01 03:27:59;;;;;;;152.77;56.58;;;1.80;81.80;;;;;;5012232;28;20065;-69
2022/01/01 03:30:25;;;;;;;124.55;54.80;;;1.80;82.00;;;;;;5027651;28;20541;-69
2022/01/01 03:32:51;;;;;;;138.95;51.78;;;1.80;82.00;;;;;;5027337;28;20510;-69
2022/01/01 03:35:17;;;;;;;171.30;57.55;;;1.90;82.00;;;;;;5012279;28;20038;-69
2022/01/01 03:37:43;;;;;;;195.45;55.30;;;1.90;82.00;;;;;;5011938;28;20049;-69
2022/01/01 03:40:11;;;;;;;134.88;51.88;;;1.90;82.10;;;;;;5043722;28;20088;-68
2022/01/01 03:42:37;;;;;;;130.63;49.20;;;1.80;81.90;;;;;;5012058;28;20022;-69
2022/01/01 03:45:06;;;;;;;142.70;51.25;;;1.80;82.30;;;;;;5012146;28;20029;-69
2022/01/01 03:47:33;;;;;;;191.48;54.50;;;1.80;82.40;;;;;;5012071;28;20041;-69
2022/01/01 03:49:59;;;;;;;187.77;54.88;;;1.80;82.60;;;;;;5011940;28;20034;-68
2022/01/01 03:52:25;;;;;;;145.27;56.05;;;1.80;82.70;;;;;;5051762;28;20593;-69
2022/01/01 03:54:51;;;;;;;149.48;55.28;;;1.80;82.80;;;;;;5043625;28;20061;-69
2022/01/01 03:57:20;;;;;;;177.70;54.75;;;1.80;82.10;;;;;;5027322;28;20042;-69
2022/01/01 03:59:47;;;;;;;145.50;53.03;;;1.70;82.90;;;;;;5042725;28;20061;-69
2022/01/01 04:02:14;;;;;;;197.90;55.15;;;1.70;82.80;;;;;;5043673;28;20152;-69
2022/01/01 04:04:41;;;;;;;223.88;58.85;;;1.80;82.90;;;;;;5043595;28;20045;-69
2022/01/01 04:07:09;;;;;;;186.27;54.83;;;1.80;82.70;;;;;;5043527;28;20044;-68
2022/01/01 04:09:35;;;;;;;196.30;54.55;;;1.80;82.90;;;;;;5042957;28;20356;-69
2022/01/01 04:12:01;;;;;;;;;;;1.80;82.90;;;;;;5038451;28;20495;-69
2022/01/01 04:14:28;;;;;;;186.40;52.22;;;1.70;82.20;;;;;;5039749;28;19922;-69
2022/01/01 04:16:54;;;;;;;199.82;53.53;;;1.70;82.90;;;;;;5043336;28;20129;-69
2022/01/01 04:19:31;;;;;;;171.77;51.08;;;1.60;83.00;;;;;;5042005;28;20034;-68
2022/01/01 04:21:57;;;;;;;170.10;49.45;;;1.60;83.20;;;;;;5010346;28;20037;-69
2022/01/01 04:24:23;;;;;;;180.00;54.90;;;1.50;83.20;;;;;;5043755;28;20042;-71
2022/01/01 04:26:49;;;;;;;138.68;48.28;;;1.50;83.30;;;;;;5036616;28;20035;-69
2022/01/01 04:29:15;;;;;;;184.02;58.90;;;1.50;83.50;;;;;;5011659;28;20034;-69
2022/01/01 04:31:42;;;;;;;148.65;55.75;;;1.50;83.40;;;;;;5020561;28;20041;-69
2022/01/01 04:34:09;;;;;;;185.77;55.33;;;1.40;83.30;;;;;;5042396;28;20101;-69
2022/01/01 04:36:38;;;;;;;136.48;51.03;;;1.40;83.30;;;;;;5042345;28;20050;-69
2022/01/01 04:39:04;;;;;;;115.95;49.42;;;1.30;83.30;;;;;;5009691;28;20084;-69
2022/01/01 04:41:30;;;;;;;141.63;48.40;;;1.30;83.50;;;;;;5047277;28;20100;-68
2022/01/01 04:43:56;;;;;;;132.15;49.88;;;1.30;83.50;;;;;;5010494;28;20046;-69
2022/01/01 04:46:22;;;;;;;159.00;55.10;;;1.30;83.50;;;;;;5011490;28;20050;-69
2022/01/01 04:48:48;;;;;;;140.00;52.53;;;1.30;83.40;;;;;;5015118;28;20041;-69
2022/01/01 04:51:14;;;;;;;116.75;51.25;;;1.30;84.20;;;;;;5017042;28;20407;-68
2022/01/01 04:53:43;;;;;;;140.05;55.15;;;1.30;83.30;;;;;;5033687;28;20062;-69
2022/01/01 04:56:09;;;;;;;109.43;50.22;;;1.30;83.10;;;;;;5013047;28;20054;-69
2022/01/01 04:58:36;;;;;;;105.93;47.47;;;1.30;82.60;;;;;;5013471;28;20408;-69
2022/01/01 05:01:03;;;;;;;144.93;56.03;;;1.30;83.00;;;;;;5044795;28;20046;-70
2022/01/01 05:03:29;;;;;;;104.03;47.70;;;1.30;83.20;;;;;;5010669;28;20034;-70
2022/01/01 05:05:55;;;;;;;86.57;39.85;;;1.30;83.10;;;;;;5015129;28;20511;-68
2022/01/01 05:08:21;;;;;;;94.45;39.55;;;1.30;82.90;;;;;;5014808;28;20049;-69
2022/01/01 05:10:47;;;;;;;129.95;41.25;;;1.30;82.80;;;;;;5046442;28;20030;-69
2022/01/01 05:13:14;;;;;;;145.52;41.15;;;1.30;82.80;;;;;;5046516;28;20426;-68
2022/01/01 05:15:40;;;;;;;97.78;34.03;;;1.40;82.80;;;;;;5046253;28;20037;-70
2022/01/01 05:18:06;;;;;;;135.13;34.05;;;1.40;82.70;;;;;;5015094;28;20109;-69
2022/01/01 05:20:32;;;;;;;107.13;31.77;;;1.30;83.00;;;;;;5014599;28;20069;-70
2022/01/01 05:22:58;;;;;;;133.82;31.83;;;1.30;83.20;;;;;;5014593;28;20443;-69
2022/01/01 05:25:24;;;;;;;131.02;36.35;;;1.30;83.20;;;;;;5046116;28;20048;-69
2022/01/01 05:27:50;;;;;;;171.25;36.72;;;1.40;83.10;;;;;;5014512;28;20058;-69
2022/01/01 05:30:16;;;;;;;198.43;39.05;;;1.40;82.90;;;;;;5046775;28;20034;-69
2022/01/01 05:32:42;;;;;;;117.75;33.60;;;1.40;82.90;;;;;;5014369;28;20038;-69
2022/01/01 05:35:09;;;;;;;128.18;36.67;;;1.40;83.00;;;;;;5014266;28;20410;-69
2022/01/01 05:37:35;;;;;;;91.78;33.22;;;1.40;82.80;;;;;;5045855;28;20042;-71
2022/01/01 05:40:02;;;;;;;114.05;36.10;;;1.40;83.20;;;;;;5045498;28;20400;-69
2022/01/01 05:42:28;;;;;;;118.68;36.38;;;1.30;83.20;;;;;;5013318;28;20033;-69
2022/01/01 05:44:55;;;;;;;105.90;36.45;;;1.30;83.30;;;;;;5012944;28;20133;-69
2022/01/01 05:47:20;;;;;;;;;;;1.30;83.40;;;;;;5046475;28;20037;-69
2022/01/01 05:49:47;;;;;;;102.68;38.08;;;1.20;83.40;;;;;;5045383;28;19966;-69
2022/01/01 05:52:13;;;;;;;112.05;39.80;;;1.20;83.50;;;;;;5033729;28;20487;-69
2022/01/01 05:54:39;;;;;;;;;;;1.20;83.50;;;;;;5014187;28;20092;-69
2022/01/01 05:57:06;;;;;;;99.85;36.00;;;1.20;83.60;;;;;;5014142;28;20357;-69
2022/01/01 05:59:32;;;;;;;92.47;33.03;;;1.10;83.70;;;;;;5013923;28;20121;-69
2022/01/01 06:01:58;;;;;;;82.43;32.70;;;1.10;83.70;;;;;;5045640;28;20038;-69
2022/01/01 06:04:24;;;;;;;85.00;33.83;;;1.10;83.80;;;;;;5013618;28;20125;-68
2022/01/01 06:06:51;;;;;;;113.40;35.45;;;1.10;83.80;;;;;;5045444;28;20042;-68
2022/01/01 06:09:17;;;;;;;106.15;36.45;;;1.10;83.70;;;;;;5013729;28;20034;-68
2022/01/01 06:11:43;;;;;;;98.47;35.55;;;1.00;83.60;;;;;;5013666;28;20041;-69
2022/01/01 06:14:09;;;;;;;105.45;36.33;;;1.10;83.70;;;;;;5045376;28;20046;-70
2022/01/01 06:16:35;;;;;;;85.72;33.65;;;1.00;83.60;;;;;;5045261;28;20053;-69
2022/01/01 06:19:01;;;;;;;95.18;35.40;;;1.00;83.60;;;;;;5013515;28;20034;-69
2022/01/01 06:21:27;;;;;;;77.55;35.13;;;1.00;83.80;;;;;;5013592;28;20512;-69
2022/01/01 06:23:53;;;;;;;87.40;34.50;;;1.00;83.80;;;;;;5012934;28;20034;-69
2022/01/01 06:26:19;;;;;;;99.85;40.40;;;1.00;83.70;;;;;;5011934;28;20069;-69
2022/01/01 06:28:45;;;;;;;85.80;40.60;;;0.90;83.50;;;;;;5013287;28;20475;-68
2022/01/01 06:31:11;;;;;;;91.10;38.80;;;1.00;83.50;;;;;;5045083;28;20400;-70
2022/01/01 06:33:37;;;;;;;70.32;36.78;;;0.90;83.50;;;;;;5011906;28;20033;-68
2022/01/01 06:36:04;;;;;;;73.53;34.13;;;0.90;83.50;;;;;;5013379;28;20042;-69
2022/01/01 06:38:30;;;;;;;87.47;36.70;;;0.80;82.90;;;;;;5012966;28;20036;-68
2022/01/01 06:40:56;;;;;;;;;;;0.90;83.50;;;;;;5045369;28;20072;-69
2022/01/01 06:43:23;;;;;;;67.00;35.42;;;0.90;83.50;;;;;;5013035;28;19925;-69
2022/01/01 06:45:50;;;;;;;67.28;33.58;;;0.80;83.30;;;;;;5044478;28;20049;-69
2022/01/01 06:48:16;;;;;;;82.50;40.15;;;0.80;82.80;;;;;;5013437;28;20076;-70
2022/01/01 06:50:42;;;;;;;92.38;42.05;;;0.80;83.30;;;;;;5044716;28;20045;-69
2022/01/01 06:53:27;;;;;;;86.45;41.08;;;0.90;83.40;;;;;;5015569;28;20552;-69
2022/01/01 06:55:53;;;;;;;83.97;37.90;;;0.80;83.00;;;;;;5012187;28;20136;-68
2022/01/01 06:58:19;;;;;;;82.15;39.15;;;0.90;83.20;;;;;;5012870;28;20034;-69
2022/01/01 07:00:45;;;;;;;78.50;37.70;;;0.80;83.10;;;;;;5012220;28;20044;-69
2022/01/01 07:03:11;;;;;;;73.53;36.97;;;0.80;83.20;;;;;;5013171;28;20108;-69
2022/01/01 07:05:37;;;;;;;71.85;36.90;;;0.80;83.10;;;;;;5012726;28;20093;-70
2022/01/01 07:08:04;;;;;;;76.22;38.60;;;0.80;83.10;;;;;;5027703;28;20045;-69
2022/01/01 07:10:30;;;;;;;91.28;43.30;;;0.80;82.20;;;;;;5012754;28;20041;-69
2022/01/01 07:12:56;;;;;;;73.28;39.13;;;0.90;82.70;;;;;;5012397;28;20402;-69
2022/01/01 07:15:22;;;;;;;76.75;38.45;;;0.90;82.50;;;;;;5044721;28;20113;-69
2022/01/01 07:17:48;;;;;;;77.68;38.60;;;1.00;82.30;;;;;;5012437;28;20050;-69
2022/01/01 07:20:15;;;;;;;73.55;38.20;;;1.00;82.10;;;;;;5027254;28;20058;-69
2022/01/01 07:22:42;;;;;;;;;;;1.00;82.10;;;;;;5044759;28;20128;-68
2022/01/01 07:25:11;;;;;;;70.68;37.75;;;1.00;82.00;;;;;;5010929;28;20370;-68
2022/01/01 07:27:37;;;;;;;71.22;37.20;;;1.00;81.80;;;;;;5044028;28;20040;-69
2022/01/01 07:30:05;;;;;;;71.03;36.17;;;1.00;81.70;;;;;;5027751;28;20117;-69
2022/01/01 07:32:31;;;;;;;70.32;34.83;;;1.00;81.70;;;;;;5044048;28;20042;-69
2022/01/01 07:34:58;;;;;;;68.80;36.38;;;1.00;81.70;;;;;;5011720;28;20041;-69
2022/01/01 07:37:24;;;;;;;103.90;53.17;;;1.10;81.70;;;;;;5010901;28;20380;-69
2022/01/01 07:39:50;;;;;;;98.45;54.58;;;1.10;81.70;;;;;;5011474;28;20164;-70
2022/01/01 07:42:16;;;;;;;90.82;48.80;;;1.20;81.60;;;;;;5012844;28;20030;-69
2022/01/01 07:44:42;;;;;;;77.70;41.88;;;1.20;81.50;;;;;;5043769;28;20048;-68
2022/01/01 07:47:08;;;;;;;67.18;39.45;;;1.30;81.50;;;;;;5010728;28;20503;-69
2022/01/01 07:49:35;;;;;;;65.82;38.20;;;1.30;81.40;;;;;;5010467;28;20037;-68
2022/01/01 07:52:01;;;;;;;55.78;30.98;;;1.30;81.40;;;;;;5044986;28;20041;-69
2022/01/01 07:54:27;;;;;;;46.10;28.33;;;1.40;81.40;;;;;;5044104;28;20061;-69
2022/01/01 07:56:53;;;;;;;54.90;29.23;;;1.40;81.40;;;;;;5011600;28;20057;-69
2022/01/01 07:59:19;;;;;;;58.33;30.05;;;1.40;81.50;;;;;;5011904;28;20423;-69
2022/01/01 08:01:45;;;;;;;53.47;27.73;;;1.50;81.30;;;;;;5043469;28;20073;-69
2022/01/01 08:04:11;;;;;;;53.88;31.33;;;1.60;81.20;;;;;;5011677;28;20030;-69
2022/01/01 08:06:37;;;;;;;56.45;33.00;;;1.70;81.10;;;;;;5011668;28;20046;-68
2022/01/01 08:09:04;;;;;;;63.20;33.13;;;1.70;81.10;;;;;;5010517;28;20096;-69
2022/01/01 08:11:30;;;;;;;51.58;28.65;;;1.80;80.30;;;;;;5010872;28;20527;-69
2022/01/01 08:13:56;;;;;;;;;;;1.90;80.90;;;;;;5031444;28;20056;-69
2022/01/01 08:16:22;;;;;;;52.90;28.95;;;2.00;80.80;;;;;;5047383;28;19921;-69
2022/01/01 08:18:49;;;;;;;51.00;27.15;;;2.00;80.70;;;;;;5047485;28;20053;-69
2022/01/01 08:21:15;;;;;;;;;;;2.10;80.80;;;;;;5016995;28;20356;-68
2022/01/01 08:23:41;;;;;;;62.40;34.33;;;2.20;80.20;;;;;;5015664;28;19921;-68
2022/01/01 08:26:07;;;;;;;;;;;2.20;80.60;;;;;;5047885;28;20041;-69
2022/01/01 08:28:34;;;;;;;66.60;34.28;;;2.30;80.70;;;;;;5015689;28;19944;-68
2022/01/01 08:31:00;;;;;;;68.32;34.90;;;2.40;80.40;;;;;;5014110;28;20044;-69
2022/01/01 08:33:26;;;;;;;62.55;34.20;;;2.50;80.40;;;;;;5047818;28;20403;-69
2022/01/01 08:35:52;;;;;;;73.00;38.80;;;2.60;79.60;;;;;;5015193;28;20455;-69
2022/01/01 08:38:18;;;;;;;;;;;2.70;80.30;;;;;;5031135;28;20054;-69
2022/01/01 08:40:44;;;;;;;81.50;40.22;;;2.80;80.00;;;;;;5015191;28;19935;-68
2022/01/01 08:43:10;;;;;;;74.43;39.22;;;2.90;79.80;;;;;;5015397;28;20042;-69
2022/01/01 08:45:38;;;;;;;86.10;39.22;;;3.00;80.50;;;;;;5030463;28;20434;-69
2022/01/01 08:48:06;;;;;;;80.65;39.97;;;3.10;79.40;;;;;;5047212;28;20026;-70
2022/01/01 08:50:32;;;;;;;80.60;41.83;;;3.20;79.20;;;;;;5015406;28;20495;-69
2022/01/01 08:52:59;;;;;;;96.55;46.47;;;3.30;79.20;;;;;;5047714;28;20491;-69
2022/01/01 08:55:26;;;;;;;;;;;3.40;78.60;;;;;;5047169;28;20096;-70
2022/01/01 08:57:52;;;;;;;79.68;41.80;;;3.50;79.30;;;;;;5013627;28;19925;-70
2022/01/01 09:00:18;;;;;;;98.72;47.75;;;3.70;79.40;;;;;;5014105;28;20065;-69
2022/01/01 09:02:44;;;;;;;;;;;3.80;79.30;;;;;;5047332;28;20038;-69
2022/01/01 09:05:11;;;;;;;101.32;53.97;;;3.90;79.30;;;;;;5014875;28;20304;-69
2022/01/01 09:07:37;;;;;;;206.50;89.50;;;4.40;78.50;;;;;;5014866;28;20042;-69
2022/01/01 09:10:04;;;;;;;;;;;5.60;76.10;;;;;;5046865;28;20129;-69
2022/01/01 09:12:31;;;;;;;194.00;88.15;;;6.30;73.80;;;;;;4997053;28;20003;-70
2022/01/01 09:14:57;;;;;;;103.88;56.85;;;7.20;71.60;;;;;;5013954;28;20026;-70
2022/01/01 09:17:24;;;;;;;119.60;64.72;;;7.90;70.00;;;;;;5046218;28;20044;-70
2022/01/01 09:19:51;;;;;;;85.45;47.78;;;8.50;69.70;;;;;;5029731;28;20044;-70
2022/01/01 09:22:19;;;;;;;76.38;42.70;;;9.00;68.20;;;;;;5014680;28;20068;-69
2022/01/01 09:24:45;;;;;;;71.05;37.53;;;8.90;69.90;;;;;;5045316;28;20045;-70
2022/01/01 09:27:11;;;;;;;52.58;29.88;;;9.40;70.40;;;;;;5046779;28;20030;-70
2022/01/01 09:29:37;;;;;;;60.70;33.42;;;9.90;68.70;;;;;;5046230;28;20046;-70
2022/01/01 09:32:04;;;;;;;55.83;31.30;;;10.90;65.50;;;;;;5014314;28;20410;-69
2022/01/01 09:34:30;;;;;;;51.58;31.95;;;11.50;61.80;;;;;;5014192;28;20060;-70
2022/01/01 09:36:57;;;;;;;45.88;26.23;;;11.90;61.30;;;;;;5045850;28;20498;-69
2022/01/01 09:39:25;;;;;;;42.13;28.08;;;11.80;60.90;;;;;;5014554;28;20037;-70
2022/01/01 09:41:51;;;;;;;44.95;26.55;;;11.20;61.90;;;;;;5014261;28;20114;-70
2022/01/01 09:44:20;;;;;;;37.75;22.63;;;10.80;64.20;;;;;;5046104;28;20065;-70
2022/01/01 09:46:49;;;;;;;40.03;24.98;;;10.90;64.40;;;;;;5045173;28;20034;-69
2022/01/01 09:49:17;;;;;;;35.95;22.63;;;10.70;64.50;;;;;;5012910;28;20450;-70
2022/01/01 09:51:44;;;;;;;37.33;22.70;;;11.20;63.00;;;;;;5015481;28;20101;-70
2022/01/01 09:54:11;;;;;;;33.28;21.10;;;12.10;59.80;;;;;;5024105;28;20034;-70
2022/01/01 09:56:38;;;;;;;32.92;20.88;;;11.70;59.70;;;;;;5013647;28;20049;-70
2022/01/01 09:59:04;;;;;;;29.83;20.23;;;11.30;61.80;;;;;;5012626;28;20044;-69
2022/01/01 10:01:31;;;;;;;36.60;23.42;;;10.70;62.30;;;;;;5011517;28;20492;-70
2022/01/01 10:03:59;;;;;;;31.15;21.27;;;10.70;62.80;;;;;;5040840;28;20037;-69
2022/01/01 10:06:30;;;;;;;28.35;18.92;;;11.10;62.90;;;;;;5013982;28;20042;-70
2022/01/01 10:08:57;;;;;;;34.10;20.73;;;11.20;62.10;;;;;;5012520;28;20399;-70
2022/01/01 10:11:24;;;;;;;31.45;20.23;;;11.50;61.30;;;;;;5044532;28;20133;-69
2022/01/01 10:13:51;;;;;;;33.30;19.67;;;11.50;61.50;;;;;;5011824;28;20065;-70
2022/01/01 10:16:17;;;;;;;44.53;24.95;;;12.00;60.70;;;;;;5045468;28;20042;-70
2022/01/01 10:18:47;;;;;;;37.55;21.42;;;12.50;59.70;;;;;;5055149;28;20037;-70
2022/01/01 10:21:36;;;;;;;36.42;21.55;;;13.70;56.50;;;;;;5045856;28;20480;-69
2022/01/01 10:24:05;;;;;;;36.55;22.27;;;13.70;55.40;;;;;;5015979;28;20042;-69
2022/01/01 10:29:35;;;;;;;33.50;20.77;;;13.40;57.00;;;;;;5017903;28;20594;-69
2022/01/01 10:32:20;;;;;;;31.95;20.08;;;13.90;56.90;;;;;;5044028;28;20084;-70
2022/01/01 10:34:47;;;;;;;34.90;21.38;;;15.60;53.60;;;;;;5044030;28;20488;-69
2022/01/01 10:37:15;;;;;;;32.70;20.55;;;16.20;50.30;;;;;;5044400;28;20058;-70
2022/01/01 10:39:59;;;;;;;36.20;19.80;;;15.50;51.70;;;;;;5025211;28;20113;-70
2022/01/01 10:42:25;;;;;;;32.00;20.25;;;14.60;54.90;;;;;;5015672;28;20034;-70
2022/01/01 10:44:53;;;;;;;;;;;14.40;55.90;;;;;;5012105;28;20038;-69
2022/01/01 10:47:28;;;;;;;35.28;21.30;;;13.80;58.30;;;;;;5044695;28;19944;-70
2022/01/01 10:50:14;;;;;;;37.50;23.45;;;13.70;58.60;;;;;;5043249;28;20046;-69
2022/01/01 10:52:45;;;;;;;39.97;21.92;;;15.00;55.10;;;;;;5053841;28;20053;-70
2022/01/01 10:55:13;;;;;;;33.67;21.17;;;15.50;53.60;;;;;;5043856;28;20038;-70
2022/01/01 10:58:00;;;;;;;31.25;21.10;;;14.80;55.00;;;;;;5010912;28;20454;-70
2022/01/01 11:00:27;;;;;;;30.13;18.90;;;15.00;54.40;;;;;;5027039;28;20387;-69
2022/01/01 11:02:57;;;;;;;33.28;20.25;;;15.40;53.80;;;;;;5012342;28;20123;-70
2022/01/01 11:05:42;;;;;;;30.73;19.00;;;16.30;52.30;;;;;;5027034;28;20128;-70
2022/01/01 11:08:10;;;;;;;34.08;19.75;;;17.20;50.10;;;;;;5044238;28;20042;-69
2022/01/01 11:10:38;;;;;;;29.58;19.77;;;17.30;49.40;;;;;;5027438;28;20453;-70
2022/01/01 11:13:06;;;;;;;36.88;20.90;;;17.30;49.70;;;;;;5044228;28;20510;-70
2022/01/01 11:15:33;;;;;;;48.17;28.42;;;17.40;50.10;;;;;;5011362;28;20382;-71
2022/01/01 11:18:01;;;;;;;41.45;27.92;;;18.10;49.00;;;;;;5028015;28;20037;-70
2022/01/01 11:20:34;;;;;;;42.03;25.80;;;17.80;49.60;;;;;;5028565;28;20395;-70
2022/01/01 11:23:20;;;;;;;34.42;21.98;;;18.10;49.20;;;;;;5011046;28;20045;-70
2022/01/01 11:25:47;;;;;;;28.80;18.70;;;18.80;47.70;;;;;;5011564;28;20049;-70
2022/01/01 11:28:16;;;;;;;37.67;21.83;;;18.90;47.30;;;;;;5044098;28;20129;-70
2022/01/01 11:31:22;;;;;;;30.40;19.23;;;18.30;48.60;;;;;;5050450;28;20384;-69
2022/01/01 11:34:00;;;;;;;30.25;20.38;;;18.10;49.80;;;;;;5007978;28;20033;-70
2022/01/01 11:36:31;;;;;;;33.97;20.15;;;18.00;49.70;;;;;;5041535;28;20057;-69
2022/01/01 11:39:03;;;;;;;31.17;20.77;;;18.20;49.60;;;;;;5012142;28;20046;-69
2022/01/01 11:41:48;;;;;;;35.70;22.77;;;18.00;49.80;;;;;;5011027;28;20056;-69
2022/01/01 11:44:34;;;;;;;31.98;20.10;;;17.60;51.50;;;;;;5010865;28;20049;-69
2022/01/01 11:47:22;;;;;;;31.13;19.30;;;17.10;52.70;;;;;;5010824;28;20042;-70
2022/01/01 11:49:49;;;;;;;;;;;17.30;52.00;;;;;;5044120;28;20046;-69
2022/01/01 11:52:52;;;;;;;33.65;20.50;;;17.30;52.50;;;;;;5021783;28;19921;-69
2022/01/01 11:55:19;;;;;;;39.72;24.75;;;17.20;51.80;;;;;;4994413;28;20459;-70
2022/01/01 11:58:11;;;;;;;31.02;19.83;;;16.90;52.10;;;;;;5011558;28;20054;-69
2022/01/01 12:00:56;;;;;;;39.35;22.98;;;16.80;52.50;;;;;;5043433;28;20042;-70
2022/01/01 12:03:26;;;;;;;39.15;22.95;;;17.00;52.30;;;;;;5012283;28;20037;-70
2022/01/01 12:06:11;;;;;;;31.58;17.90;;;17.30;51.20;;;;;;5042569;28;20080;-69
2022/01/01 12:08:56;;;;;;;30.30;17.65;;;17.50;50.70;;;;;;5042242;28;20136;-69
2022/01/01 12:11:50;;;;;;;46.05;23.38;;;17.70;49.80;;;;;;5042374;28;20037;-69
2022/01/01 12:14:36;;;;;;;43.38;18.27;;;17.40;50.40;;;;;;5035415;28;20062;-70
2022/01/01 12:17:04;;;;;;;30.52;19.52;;;17.00;51.40;;;;;;5001250;28;20049;-69
2022/01/01 12:19:37;;;;;;;55.03;24.63;;;16.80;51.70;;;;;;5041788;28;20233;-70
2022/01/01 12:22:07;;;;;;;27.45;16.85;;;16.80;51.30;;;;;;5010365;28;20038;-70
2022/01/01 12:24:41;;;;;;;33.58;16.98;;;16.90;51.40;;;;;;5010283;28;20061;-69
2022/01/01 12:27:40;;;;;;;31.15;17.08;;;16.90;50.90;;;;;;5041570;28;20553;-69
2022/01/01 12:30:07;;;;;;;28.67;16.88;;;16.60;51.90;;;;;;5008957;28;20577;-70
2022/01/01 12:32:53;;;;;;;29.02;16.52;;;16.70;52.00;;;;;;5008833;28;20042;-69
2022/01/01 12:35:50;;;;;;;28.17;18.42;;;16.70;51.70;;;;;;5006813;28;20530;-70
2022/01/01 12:38:40;;;;;;;30.52;15.73;;;16.80;51.40;;;;;;5041621;28;20407;-69
2022/01/01 12:41:15;;;;;;;32.35;17.65;;;16.70;51.70;;;;;;5009391;28;20072;-69
2022/01/01 12:43:56;;;;;;;29.60;17.42;;;16.80;51.20;;;;;;5026274;28;20129;-70
2022/01/01 12:46:29;;;;;;;32.60;16.98;;;16.90;51.20;;;;;;5028889;28;20065;-69
2022/01/01 12:49:00;;;;;;;24.38;14.75;;;16.90;50.80;;;;;;5010134;28;20584;-69
2022/01/01 12:51:29;;;;;;;23.35;14.43;;;17.40;49.80;;;;;;5029829;28;20038;-69